Time;durP1;ratioP1;P1;durP2;ratioP2;P2;SDS_P1;SDS_P2;PMS_P1;PMS_P2;Temp;Humidity;BMP_temperature;BMP_pressure;BME280_temperature;BME280_humidity;BME280_pressure;Samples;Min_cycle;Max_cycle;Signal;HPM_P1;HPM_P2
2022/05/14 00:03:21;;;;;;;5.88;2.42;;;;;;;17.81;46.98;100579.56;10372919;28;20071;-64
2022/05/14 00:08:23;;;;;;;5.13;2.58;;;;;;;17.70;47.62;100578.00;10391232;28;20144;-63
2022/05/14 00:13:25;;;;;;;7.13;3.08;;;;;;;17.68;47.68;100580.00;10374377;28;20105;-64
2022/05/14 00:18:27;;;;;;;4.35;2.45;;;;;;;17.61;48.37;100585.19;10377013;28;20120;-64
2022/05/14 00:23:29;;;;;;;4.47;2.33;;;;;;;17.61;47.98;100579.81;10373955;28;20455;-65
2022/05/14 00:28:31;;;;;;;6.97;3.15;;;;;;;17.59;48.09;100597.97;10378447;28;20124;-64
2022/05/14 00:33:33;;;;;;;6.65;3.08;;;;;;;17.47;47.77;100589.34;10380831;28;20049;-65
2022/05/14 00:38:34;;;;;;;5.03;2.35;;;;;;;17.24;48.46;100574.75;10373106;28;20232;-64
2022/05/14 00:43:51;;;;;;;4.72;2.78;;;;;;;17.30;48.67;100592.94;10372856;28;20652;-65
2022/05/14 00:48:57;;;;;;;4.43;2.42;;;;;;;17.16;48.59;100580.94;10371032;28;20061;-64
2022/05/14 00:54:14;;;;;;;3.72;2.70;;;;;;;17.09;48.78;100596.00;10371941;28;20041;-65
2022/05/14 00:59:18;;;;;;;4.10;2.22;;;;;;;16.98;49.98;100602.50;10375062;28;20099;-65
2022/05/14 01:04:21;;;;;;;4.20;2.13;;;;;;;16.85;50.89;100592.09;10374712;28;20083;-64
2022/05/14 01:09:24;;;;;;;4.85;2.65;;;;;;;16.83;51.08;100596.81;10374983;28;20052;-64
2022/05/14 01:14:25;;;;;;;4.93;2.75;;;;;;;16.75;51.29;100594.03;10372176;28;20397;-65
2022/05/14 01:19:27;;;;;;;5.18;2.53;;;;;;;16.59;51.53;100579.47;10373903;28;20053;-65
2022/05/14 01:30:15;;;;;;;5.00;2.30;;;;;;;16.36;51.98;100583.59;10369280;28;20049;-64
2022/05/14 01:35:17;;;;;;;9.15;3.13;;;;;;;16.35;52.73;100596.22;10370756;28;21132;-65
2022/05/14 01:40:18;;;;;;;4.25;2.10;;;;;;;16.36;52.89;100594.34;10373509;28;23519;-64
2022/05/14 01:45:20;;;;;;;3.38;2.28;;;;;;;16.25;51.95;100598.94;10379028;28;20136;-64
2022/05/14 01:50:22;;;;;;;5.07;2.30;;;;;;;16.07;52.69;100592.72;10380000;28;20053;-63
2022/05/14 01:55:23;;;;;;;4.15;2.10;;;;;;;16.03;53.39;100585.94;10378312;28;20576;-63
2022/05/14 02:00:25;;;;;;;3.85;2.30;;;;;;;16.01;53.42;100585.28;10392937;28;20136;-70
2022/05/14 02:05:26;;;;;;;5.32;2.47;;;;;;;16.01;53.50;100586.09;10376295;28;20054;-63
2022/05/14 02:10:27;;;;;;;8.10;2.83;;;;;;;15.86;53.69;100564.28;10377186;28;20115;-64
2022/05/14 02:15:29;;;;;;;5.07;2.30;;;;;;;15.77;53.79;100565.16;10378414;28;20422;-65
2022/05/14 02:20:30;;;;;;;4.88;3.00;;;;;;;15.63;54.04;100565.69;10376736;28;20336;-64
2022/05/14 02:25:31;;;;;;;4.10;2.20;;;;;;;15.51;54.69;100584.63;10375747;28;20049;-65
2022/05/14 02:30:33;;;;;;;5.13;2.58;;;;;;;15.42;55.59;100585.53;10375834;28;20095;-65
2022/05/14 02:35:36;;;;;;;5.28;2.85;;;;;;;15.34;55.99;100572.84;10376196;28;20120;-65
2022/05/14 02:40:37;;;;;;;4.45;2.92;;;;;;;15.36;55.93;100578.06;10374742;28;20056;-64
2022/05/14 02:45:39;;;;;;;4.78;2.40;;;;;;;15.43;56.38;100587.19;10376197;28;20526;-64
2022/05/14 02:50:41;;;;;;;5.60;3.28;;;;;;;15.40;56.56;100590.19;10376887;28;20060;-64
2022/05/14 02:55:42;;;;;;;4.57;3.22;;;;;;;15.33;57.00;100591.78;10379413;28;20124;-65
2022/05/14 03:00:44;;;;;;;3.45;2.63;;;;;;;15.23;56.89;100577.56;10382002;28;20508;-64
2022/05/14 03:05:45;;;;;;;5.53;2.78;;;;;;;15.26;57.08;100590.66;10373804;28;20053;-65
2022/05/14 03:10:46;;;;;;;4.47;2.75;;;;;;;15.23;56.82;100591.78;10375924;28;20463;-63
2022/05/14 03:15:49;;;;;;;5.60;3.15;;;;;;;15.15;56.58;100595.22;10375265;28;20562;-64
2022/05/14 03:20:50;;;;;;;3.95;2.45;;;;;;;15.09;56.85;100590.44;10373892;28;20041;-64
2022/05/14 03:25:52;;;;;;;2.70;2.10;;;;;;;14.99;57.16;100593.13;10373707;28;20052;-63
2022/05/14 03:30:54;;;;;;;3.97;2.35;;;;;;;15.02;56.71;100605.38;10374764;28;20375;-63
2022/05/14 03:35:55;;;;;;;4.80;2.67;;;;;;;14.91;57.16;100590.31;10376374;28;20782;-63
2022/05/14 03:40:57;;;;;;;2.75;2.38;;;;;;;14.93;57.20;100614.31;10374608;28;20142;-62
2022/05/14 03:45:58;;;;;;;4.18;2.72;;;;;;;14.91;57.39;100618.97;10375309;28;20132;-63
2022/05/14 03:51:05;;;;;;;4.70;2.33;;;;;;;14.90;57.28;100628.00;10374105;28;20046;-65
2022/05/14 03:56:07;;;;;;;6.93;3.00;;;;;;;14.78;57.48;100620.09;10375000;28;20555;-66
2022/05/14 04:01:08;;;;;;;5.78;2.83;;;;;;;14.69;57.90;100615.56;10375541;28;20046;-65
2022/05/14 04:06:09;;;;;;;4.63;2.90;;;;;;;14.69;58.18;100615.56;10376007;28;20071;-64
2022/05/14 04:11:11;;;;;;;3.35;2.63;;;;;;;14.81;58.11;100629.69;10373735;28;20073;-64
2022/05/14 04:16:12;;;;;;;4.22;2.17;;;;;;;14.81;58.23;100632.38;10370976;28;20080;-64
2022/05/14 04:21:14;;;;;;;3.45;2.53;;;;;;;14.80;58.38;100631.53;10370890;28;20056;-64
2022/05/14 04:26:15;;;;;;;2.92;2.42;;;;;;;14.76;58.23;100631.97;10371725;28;20083;-64
2022/05/14 04:31:18;;;;;;;5.20;3.08;;;;;;;14.60;58.75;100622.59;10376540;28;20132;-64
2022/05/14 04:36:19;;;;;;;4.28;3.00;;;;;;;14.54;59.04;100617.81;10388938;28;20083;-64
2022/05/14 04:41:21;;;;;;;4.53;3.25;;;;;;;14.62;59.31;100641.25;10374373;28;20080;-64
2022/05/14 04:46:22;;;;;;;3.33;2.75;;;;;;;14.65;59.40;100647.19;10376459;28;20117;-62
2022/05/14 04:51:24;;;;;;;5.68;3.08;;;;;;;14.73;59.38;100649.16;10375283;28;20147;-63
2022/05/14 04:56:25;;;;;;;7.53;3.72;;;;;;;14.78;59.04;100643.38;10370634;28;20603;-63
2022/05/14 05:01:27;;;;;;;4.90;3.70;;;;;;;14.78;59.03;100652.25;10372233;28;20128;-63
2022/05/14 05:06:28;;;;;;;5.43;3.30;;;;;;;14.74;59.68;100648.19;10372240;28;20058;-64
2022/05/14 05:11:30;;;;;;;7.10;4.00;;;;;;;14.77;59.24;100650.56;10369971;28;20049;-64
2022/05/14 05:16:31;;;;;;;4.50;3.50;;;;;;;14.87;59.37;100658.59;10369571;28;20179;-63
2022/05/14 05:21:32;;;;;;;6.95;4.28;;;;;;;14.83;60.15;100647.31;10375992;28;20045;-64
2022/05/14 05:26:34;;;;;;;5.40;3.75;;;;;;;14.85;58.57;100637.28;10377792;28;20478;-63
2022/05/14 05:31:36;;;;;;;7.63;4.20;;;;;;;15.03;58.51;100663.38;10368582;28;20049;-64
2022/05/14 05:36:37;;;;;;;5.82;3.78;;;;;;;15.02;58.95;100654.47;10370697;28;20112;-64
2022/05/14 05:41:39;;;;;;;4.57;3.67;;;;;;;15.14;58.60;100651.66;10371318;28;20132;-64
2022/05/14 05:46:40;;;;;;;6.35;4.03;;;;;;;15.19;58.06;100658.28;10369546;28;20513;-63
2022/05/14 05:51:42;;;;;;;6.82;3.28;;;;;;;15.33;58.46;100680.28;10370113;28;20771;-64
2022/05/14 05:56:47;;;;;;;5.97;3.80;;;;;;;15.40;59.63;100669.81;10372398;28;20049;-64
2022/05/14 06:01:48;;;;;;;5.25;3.58;;;;;;;15.51;57.54;100675.84;10370387;28;20060;-64
2022/05/14 06:06:50;;;;;;;6.40;4.13;;;;;;;15.59;58.07;100671.59;10372991;28;20081;-64
2022/05/14 06:11:52;;;;;;;6.40;3.80;;;;;;;15.83;57.06;100689.91;10369794;28;20037;-64
2022/05/14 06:16:53;;;;;;;4.20;3.05;;;;;;;16.00;57.26;100686.47;10369986;28;20045;-63
2022/05/14 06:21:55;;;;;;;6.38;3.65;;;;;;;16.15;56.15;100689.47;10369565;28;20132;-65
2022/05/14 06:26:56;;;;;;;5.03;3.47;;;;;;;16.28;56.18;100682.94;10370834;28;20885;-64
2022/05/14 06:31:59;;;;;;;6.15;3.15;;;;;;;16.34;55.35;100672.41;10377179;28;20148;-63
2022/05/14 06:37:02;;;;;;;5.18;4.00;;;;;;;16.60;55.77;100688.66;10378676;28;20046;-65
2022/05/14 06:42:04;;;;;;;4.13;2.63;;;;;;;16.77;53.94;100694.19;10390440;28;20050;-64
2022/05/14 06:47:06;;;;;;;6.63;3.70;;;;;;;16.87;53.89;100700.34;10375538;28;20060;-64
2022/05/14 06:52:14;;;;;;;8.77;3.65;;;;;;;16.98;53.52;100691.22;10375249;28;20055;-64
2022/05/14 06:57:16;;;;;;;5.13;2.85;;;;;;;17.13;52.03;100699.59;10372940;28;20141;-65
2022/05/14 07:02:19;;;;;;;4.88;2.42;;;;;;;17.30;50.91;100692.50;10372574;28;20045;-64
2022/05/14 07:07:20;;;;;;;6.57;2.83;;;;;;;17.54;51.27;100702.56;10377244;28;20321;-65
2022/05/14 07:12:22;;;;;;;6.13;2.88;;;;;;;17.63;50.63;100707.00;10376073;28;20053;-64
2022/05/14 07:17:25;;;;;;;8.27;3.53;;;;;;;17.70;49.86;100700.97;10375961;28;20146;-63
2022/05/14 07:22:27;;;;;;;7.37;3.07;;;;;;;17.83;48.98;100694.19;10376418;28;20591;-64
2022/05/14 07:27:28;;;;;;;5.50;3.45;;;;;;;17.90;48.53;100689.03;10374918;28;20332;-63
2022/05/14 07:32:29;;;;;;;4.57;1.90;;;;;;;18.00;49.14;100681.66;10376000;28;20645;-64
2022/05/14 07:37:35;;;;;;;5.72;2.75;;;;;;;18.27;48.86;100693.22;10374848;28;20059;-64
2022/05/14 07:42:43;;;;;;;5.60;2.50;;;;;;;18.41;48.79;100688.22;10373573;28;20588;-64
2022/05/14 07:47:45;;;;;;;6.65;2.17;;;;;;;18.54;48.54;100693.97;10380079;28;20053;-64
2022/05/14 07:52:46;;;;;;;5.88;2.25;;;;;;;18.64;48.04;100685.72;10374477;28;20136;-64
2022/05/14 07:57:48;;;;;;;3.88;1.95;;;;;;;18.74;47.39;100694.50;10374282;28;20250;-64
2022/05/14 08:02:49;;;;;;;5.45;2.38;;;;;;;19.00;46.97;100694.38;10376025;28;20215;-65
2022/05/14 08:07:51;;;;;;;6.85;2.50;;;;;;;19.28;45.86;100674.34;10377023;28;20045;-63
2022/05/14 08:12:55;;;;;;;2.92;2.05;;;;;;;19.62;44.80;100679.47;10372813;28;20349;-64
2022/05/14 08:17:56;;;;;;;4.32;2.33;;;;;;;19.90;45.23;100689.91;10373044;28;20499;-65
2022/05/14 08:28:19;;;;;;;2.50;1.60;;;;;;;20.17;43.75;100690.50;10376183;28;20049;-65
2022/05/14 08:33:20;;;;;;;6.25;1.90;;;;;;;20.34;43.73;100680.44;10374833;28;20059;-64
2022/05/14 08:38:23;;;;;;;5.57;2.15;;;;;;;20.33;43.40;100685.00;10366947;28;20507;-64
2022/05/14 08:43:32;;;;;;;8.23;1.90;;;;;;;20.73;43.05;100677.69;10372851;28;20045;-64
2022/05/14 08:48:37;;;;;;;2.83;1.65;;;;;;;21.06;41.88;100672.00;10374348;28;20048;-64
2022/05/14 08:53:40;;;;;;;8.10;1.77;;;;;;;21.40;41.57;100675.28;10369225;28;20411;-64
2022/05/14 08:59:07;;;;;;;;;;;;;;;21.53;41.02;100648.44;10370662;28;20056;-64
2022/05/14 09:04:10;;;;;;;4.18;2.20;;;;;;;21.94;39.38;100663.38;10370186;28;20402;-64
2022/05/14 09:09:12;;;;;;;4.72;1.48;;;;;;;22.33;38.93;100665.75;10385478;28;20049;-63
2022/05/14 09:14:35;;;;;;;7.68;2.17;;;;;;;22.41;37.40;100668.38;10367575;28;20045;-63
2022/05/14 09:19:39;;;;;;;3.67;1.47;;;;;;;22.35;37.39;100674.56;10371406;28;20038;-65
2022/05/14 09:25:01;;;;;;;3.65;1.65;;;;;;;22.30;37.99;100668.00;10369864;28;20057;-63
2022/05/14 09:30:06;;;;;;;6.07;1.63;;;;;;;22.50;38.00;100663.63;10370727;28;20124;-64
2022/05/14 09:35:14;;;;;;;5.35;2.00;;;;;;;22.50;37.25;100663.63;10370320;28;21639;-63
2022/05/14 09:40:26;;;;;;;4.30;1.75;;;;;;;22.68;37.91;100663.19;10369708;28;20053;-65
2022/05/14 09:45:32;;;;;;;3.40;1.73;;;;;;;22.85;36.60;100657.50;10370766;28;20133;-64
2022/05/14 09:50:34;;;;;;;6.03;1.55;;;;;;;22.85;36.13;100647.53;10371057;28;20045;-64
2022/05/14 09:55:57;;;;;;;7.80;2.05;;;;;;;22.87;35.67;100656.28;10371306;28;20566;-65
2022/05/14 10:01:09;;;;;;;5.40;1.10;;;;;;;22.99;35.93;100648.47;10372295;28;20042;-64
2022/05/14 10:06:19;;;;;;;5.38;1.67;;;;;;;23.93;34.97;100644.56;10380410;28;20049;-66
2022/05/14 10:11:44;;;;;;;6.85;1.40;;;;;;;24.13;33.64;100639.19;10389152;28;20051;-64
2022/05/14 10:17:18;;;;;;;3.30;0.90;;;;;;;24.52;34.35;100626.75;10380405;28;20549;-64
2022/05/14 10:28:16;;;;;;;3.58;1.08;;;;;;;25.01;31.50;100622.00;10380823;28;20045;-64
2022/05/14 10:33:22;;;;;;;3.55;1.00;;;;;;;25.21;31.87;100629.31;10391518;28;20148;-64
2022/05/14 10:38:30;;;;;;;4.10;1.10;;;;;;;25.31;31.52;100629.75;10384772;28;20065;-63
2022/05/14 10:43:35;;;;;;;3.47;0.80;;;;;;;25.59;31.48;100623.19;10404120;28;20472;-65
2022/05/14 10:48:42;;;;;;;4.20;0.90;;;;;;;25.35;30.60;100617.38;10377926;28;20143;-64
2022/05/14 10:53:44;;;;;;;3.67;1.58;;;;;;;25.86;31.06;100609.47;10375965;28;20075;-63
2022/05/14 10:58:52;;;;;;;;;;;;;;;25.70;30.54;100600.75;10378826;28;20056;-64
2022/05/14 11:03:56;;;;;;;4.65;0.95;;;;;;;25.81;30.42;100595.69;10376945;28;19927;-63
2022/05/14 11:09:35;;;;;;;3.15;1.00;;;;;;;26.07;30.11;100592.81;10375559;28;20053;-64
2022/05/14 11:14:43;;;;;;;4.10;1.00;;;;;;;25.91;30.15;100590.56;10375443;28;20136;-63
2022/05/14 11:19:45;;;;;;;2.47;0.93;;;;;;;26.53;29.97;100595.50;10377434;28;20053;-63
2022/05/14 11:24:48;;;;;;;3.53;1.05;;;;;;;26.84;29.20;100571.97;10376468;28;20141;-64
2022/05/14 11:30:03;;;;;;;2.55;1.40;;;;;;;27.30;27.80;100584.34;10378045;28;20346;-64
2022/05/14 11:35:05;;;;;;;4.28;1.33;;;;;;;27.67;27.85;100582.50;10374258;28;20309;-62
2022/05/14 11:40:25;;;;;;;3.50;0.93;;;;;;;27.51;27.85;100573.00;10367320;28;20445;-66
2022/05/14 11:45:30;;;;;;;3.60;0.88;;;;;;;27.19;28.35;100574.16;10373692;28;20140;-62
2022/05/14 11:50:56;;;;;;;3.40;1.23;;;;;;;27.28;27.24;100581.84;10378090;28;20565;-64
2022/05/14 11:56:05;;;;;;;2.30;0.82;;;;;;;26.97;28.12;100569.13;10383732;28;20050;-63
2022/05/14 12:01:11;;;;;;;4.50;1.17;;;;;;;26.79;27.54;100565.28;10374797;28;20052;-65
2022/05/14 12:06:48;;;;;;;3.75;1.83;;;;;;;27.06;28.03;100567.78;10375173;28;20057;-64
2022/05/14 12:12:02;;;;;;;2.47;1.00;;;;;;;27.03;28.14;100565.50;10373800;28;20048;-63
2022/05/14 12:17:17;;;;;;;1.80;0.90;;;;;;;26.63;27.95;100557.63;10373072;28;20151;-63
2022/05/14 12:22:22;;;;;;;4.35;1.65;;;;;;;26.88;28.21;100559.56;10388137;28;20707;-64
2022/05/14 12:27:24;;;;;;;4.38;1.10;;;;;;;27.09;28.48;100544.66;10375761;28;20056;-64
2022/05/14 12:37:47;;;;;;;3.80;0.75;;;;;;;27.42;28.92;100532.53;10388822;28;20045;-64
2022/05/14 12:42:48;;;;;;;1.20;0.70;;;;;;;27.20;28.18;100511.09;10372005;28;20223;-64
2022/05/14 12:47:50;;;;;;;2.67;0.90;;;;;;;27.05;27.58;100522.38;10372389;28;20128;-64
2022/05/14 12:52:59;;;;;;;3.20;1.13;;;;;;;26.83;27.50;100515.69;10374382;28;20095;-65
2022/05/14 12:58:02;;;;;;;3.53;1.02;;;;;;;26.91;27.98;100515.41;10372418;28;20061;-65
2022/05/14 13:03:12;;;;;;;3.78;1.15;;;;;;;26.76;28.05;100511.13;10371660;28;20067;-64
2022/05/14 13:08:22;;;;;;;5.22;1.02;;;;;;;26.89;28.83;100501.13;10369938;28;20361;-64
2022/05/14 13:13:42;;;;;;;2.95;1.00;;;;;;;26.90;27.85;100500.94;10371228;28;20057;-65
2022/05/14 13:18:49;;;;;;;2.95;0.90;;;;;;;26.92;28.21;100492.50;10370331;28;20610;-64
2022/05/14 13:24:00;;;;;;;4.18;1.20;;;;;;;26.83;28.09;100491.09;10370871;28;20564;-64
2022/05/14 13:29:15;;;;;;;2.20;1.00;;;;;;;26.90;28.29;100490.00;10367631;28;20184;-64
2022/05/14 13:39:54;;;;;;;3.42;1.13;;;;;;;26.84;28.48;100479.97;10374811;28;20045;-64
2022/05/14 13:45:16;;;;;;;3.17;1.20;;;;;;;26.77;28.28;100473.75;10379094;28;20149;-64
2022/05/14 13:50:29;;;;;;;3.00;1.38;;;;;;;26.81;28.46;100470.34;10377590;28;20051;-65
2022/05/14 13:55:32;;;;;;;3.17;0.95;;;;;;;26.88;27.67;100470.25;10377989;28;20051;-64
2022/05/14 14:00:54;;;;;;;4.45;1.25;;;;;;;26.81;27.98;100453.97;10378882;28;20038;-63
2022/05/14 14:05:56;;;;;;;2.20;1.00;;;;;;;26.66;28.65;100460.78;10376425;28;20072;-63
2022/05/14 14:10:57;;;;;;;2.05;1.15;;;;;;;26.52;28.84;100435.53;10376910;28;20046;-64
2022/05/14 14:15:58;;;;;;;1.65;0.95;;;;;;;26.57;29.19;100446.59;10378716;28;20060;-64
2022/05/14 14:21:06;;;;;;;3.85;1.00;;;;;;;26.44;29.01;100436.66;10378770;28;20057;-63
2022/05/14 14:26:08;;;;;;;2.75;0.70;;;;;;;26.27;29.07;100441.81;10378108;28;20053;-64
2022/05/14 14:31:17;;;;;;;2.65;0.88;;;;;;;25.96;29.68;100409.94;10379025;28;20053;-64
2022/05/14 14:36:19;;;;;;;2.63;0.90;;;;;;;26.01;29.45;100426.53;10377530;28;20049;-63
2022/05/14 14:41:20;;;;;;;4.20;0.93;;;;;;;25.99;29.96;100417.72;10377817;28;20049;-64
2022/05/14 14:46:22;;;;;;;3.45;1.05;;;;;;;26.04;29.74;100412.44;10377543;28;20059;-64
2022/05/14 14:51:24;;;;;;;4.10;0.90;;;;;;;25.99;29.81;100407.66;10374441;28;20053;-62
2022/05/14 14:56:26;;;;;;;3.27;1.23;;;;;;;26.01;29.52;100410.97;10377155;28;20049;-63
2022/05/14 15:01:35;;;;;;;4.82;1.13;;;;;;;25.84;29.62;100404.38;10379655;28;20144;-63
2022/05/14 15:06:37;;;;;;;3.00;0.98;;;;;;;25.69;29.60;100413.69;10392156;28;20554;-63
2022/05/14 15:11:39;;;;;;;5.47;1.00;;;;;;;25.50;29.42;100393.69;10376437;28;20124;-64
2022/05/14 15:16:41;;;;;;;1.45;0.63;;;;;;;25.54;29.71;100394.09;10375458;28;20057;-65
2022/05/14 15:21:43;;;;;;;1.42;0.60;;;;;;;25.56;29.34;100391.97;10374702;28;20139;-63
2022/05/14 15:26:44;;;;;;;3.70;1.17;;;;;;;25.59;29.07;100391.53;10374354;28;20068;-64
2022/05/14 15:31:46;;;;;;;2.88;0.80;;;;;;;25.72;29.58;100396.06;10373397;28;20053;-64
2022/05/14 15:36:47;;;;;;;2.67;1.27;;;;;;;25.60;29.58;100382.31;10375445;28;20056;-64
2022/05/14 15:41:56;;;;;;;2.13;0.95;;;;;;;25.56;30.11;100381.06;10379404;28;23075;-64
2022/05/14 15:47:01;;;;;;;3.25;1.13;;;;;;;25.57;29.80;100382.75;10372632;28;20688;-63
2022/05/14 15:52:03;;;;;;;5.03;1.05;;;;;;;25.50;29.91;100377.31;10372809;28;20045;-64
2022/05/14 15:57:08;;;;;;;1.73;0.87;;;;;;;25.43;29.88;100373.81;10374570;28;20132;-63
2022/05/14 16:02:09;;;;;;;2.20;0.80;;;;;;;25.29;30.47;100378.47;10373281;28;20732;-63
2022/05/14 16:07:11;;;;;;;2.17;0.85;;;;;;;25.32;30.09;100380.78;10372159;28;20064;-63
2022/05/14 16:17:33;;;;;;;2.80;1.13;;;;;;;25.21;29.92;100359.66;10372055;28;20059;-64
2022/05/14 16:22:34;;;;;;;1.80;0.57;;;;;;;25.22;29.77;100369.50;10373652;28;20573;-64
2022/05/14 16:27:36;;;;;;;1.52;0.80;;;;;;;25.25;29.35;100369.06;10375501;28;20111;-63
2022/05/14 16:32:37;;;;;;;2.30;0.80;;;;;;;25.24;28.79;100365.50;10376131;28;20049;-63
2022/05/14 16:37:39;;;;;;;2.75;0.90;;;;;;;25.16;28.74;100363.03;10375327;28;20068;-66
2022/05/14 16:42:41;;;;;;;3.13;1.23;;;;;;;25.11;28.84;100362.84;10373760;28;20168;-64
2022/05/14 16:47:42;;;;;;;3.80;1.38;;;;;;;25.08;28.64;100370.63;10373096;28;20059;-66
2022/05/14 16:52:44;;;;;;;2.22;0.95;;;;;;;25.02;27.94;100372.31;10372770;28;20128;-64
2022/05/14 16:57:46;;;;;;;1.13;0.60;;;;;;;25.00;27.57;100377.97;10369442;28;20143;-63
2022/05/14 17:02:48;;;;;;;4.38;1.95;;;;;;;24.90;27.36;100371.31;10370425;28;20136;-63
2022/05/14 17:07:50;;;;;;;4.50;2.13;;;;;;;24.86;27.66;100370.91;10369179;28;20045;-64
2022/05/14 17:12:52;;;;;;;3.90;1.30;;;;;;;24.79;27.95;100376.38;10370896;28;20672;-63
2022/05/14 17:17:58;;;;;;;5.20;1.42;;;;;;;24.70;28.09;100370.34;10373551;28;20137;-63
2022/05/14 17:23:01;;;;;;;4.50;1.52;;;;;;;24.52;27.71;100370.97;10373255;28;20051;-62
2022/05/14 17:28:03;;;;;;;2.38;0.75;;;;;;;24.31;27.85;100344.88;10370895;28;20061;-64
2022/05/14 17:33:05;;;;;;;3.67;1.00;;;;;;;24.42;27.57;100378.72;10386774;28;20050;-64
2022/05/14 17:44:02;;;;;;;3.42;0.95;;;;;;;24.22;26.60;100392.38;10376725;28;20052;-64
2022/05/14 17:49:09;;;;;;;3.15;0.70;;;;;;;24.13;26.47;100388.19;10376221;28;20053;-63
2022/05/14 17:54:11;;;;;;;2.25;0.88;;;;;;;24.00;26.07;100386.28;10372657;28;20057;-63
2022/05/14 17:59:12;;;;;;;2.20;0.80;;;;;;;23.86;27.03;100390.91;10370406;28;20103;-64
2022/05/14 18:04:15;;;;;;;2.13;1.10;;;;;;;23.76;26.73;100390.44;10372903;28;20445;-63
2022/05/14 18:09:18;;;;;;;1.92;1.15;;;;;;;23.67;26.95;100388.97;10361283;28;20500;-63
2022/05/14 18:14:21;;;;;;;2.65;1.02;;;;;;;23.54;27.60;100381.59;10371835;28;20053;-64
2022/05/14 18:19:25;;;;;;;3.45;1.00;;;;;;;23.04;27.56;100333.81;10370443;28;20049;-64
2022/05/14 18:24:27;;;;;;;3.65;1.42;;;;;;;23.32;27.74;100380.94;10375006;28;20555;-64
2022/05/14 18:29:53;;;;;;;2.72;1.65;;;;;;;23.21;28.14;100385.91;10375594;28;20124;-66
2022/05/14 18:34:56;;;;;;;1.80;1.38;;;;;;;23.11;28.28;100383.56;10377620;28;20063;-64
2022/05/14 18:40:05;;;;;;;2.13;1.33;;;;;;;22.97;29.08;100391.84;10378370;28;20060;-63
2022/05/14 18:45:09;;;;;;;3.50;1.13;;;;;;;22.92;29.60;100404.16;10376536;28;20056;-64
2022/05/14 18:50:11;;;;;;;3.33;1.52;;;;;;;22.83;29.48;100410.75;10375575;28;20048;-63
2022/05/14 18:55:13;;;;;;;2.80;1.48;;;;;;;22.74;29.81;100409.25;10377718;28;20538;-63
2022/05/14 19:00:16;;;;;;;3.33;1.40;;;;;;;22.63;30.25;100409.81;10377170;28;20061;-64
2022/05/14 19:10:40;;;;;;;3.28;1.45;;;;;;;22.49;30.67;100420.59;10377433;28;20140;-64
2022/05/14 19:15:43;;;;;;;3.05;1.50;;;;;;;22.39;31.09;100420.91;10376591;28;20057;-65
2022/05/14 19:20:45;;;;;;;2.25;1.15;;;;;;;22.20;31.31;100411.59;10374333;28;20057;-63
2022/05/14 19:25:50;;;;;;;2.42;1.55;;;;;;;22.21;31.31;100434.91;10374812;28;20137;-64
2022/05/14 19:30:51;;;;;;;3.47;1.10;;;;;;;22.11;31.44;100439.84;10374107;28;20060;-65
2022/05/14 19:35:55;;;;;;;4.85;1.52;;;;;;;22.01;32.01;100433.94;10371056;28;20521;-64
2022/05/14 19:41:01;;;;;;;5.88;1.20;;;;;;;21.74;32.05;100409.28;10374794;28;20134;-64
2022/05/14 19:46:05;;;;;;;3.28;1.10;;;;;;;21.83;31.86;100445.22;10373644;28;20045;-64
2022/05/14 19:51:07;;;;;;;3.78;1.48;;;;;;;21.52;32.10;100406.53;10374468;28;20049;-64
2022/05/14 19:56:09;;;;;;;3.45;1.42;;;;;;;21.63;32.16;100442.28;10374594;28;20045;-65
2022/05/14 20:01:11;;;;;;;4.55;1.55;;;;;;;21.55;32.50;100443.25;10385021;28;20148;-66
2022/05/14 20:06:14;;;;;;;3.38;1.50;;;;;;;21.48;32.03;100448.56;10376542;28;20056;-64
2022/05/14 20:11:16;;;;;;;3.50;1.95;;;;;;;21.43;31.58;100445.56;10376162;28;20163;-63
2022/05/14 20:21:38;;;;;;;4.05;1.60;;;;;;;21.21;31.22;100446.53;10372527;28;20049;-64
2022/05/14 20:26:39;;;;;;;3.17;1.33;;;;;;;21.13;30.97;100442.91;10373172;28;20051;-64
2022/05/14 20:31:41;;;;;;;2.83;1.38;;;;;;;20.99;31.87;100457.31;10373932;28;21128;-65
2022/05/14 20:36:42;;;;;;;2.80;1.00;;;;;;;20.77;30.52;100468.00;10374309;28;20148;-64
2022/05/14 20:41:44;;;;;;;3.63;1.20;;;;;;;20.54;31.02;100469.94;10372386;28;20559;-64
2022/05/14 20:46:45;;;;;;;2.63;1.13;;;;;;;20.41;31.88;100474.06;10375073;28;20112;-64
2022/05/14 20:51:49;;;;;;;3.45;1.10;;;;;;;20.17;32.77;100431.06;10372619;28;20053;-62
2022/05/14 20:56:50;;;;;;;3.67;1.15;;;;;;;20.48;33.51;100483.13;10372713;28;20202;-64
2022/05/14 21:01:52;;;;;;;1.83;1.10;;;;;;;19.97;34.96;100488.28;10373143;28;20049;-62
2022/05/14 21:06:54;;;;;;;3.42;1.50;;;;;;;19.94;36.88;100485.94;10371602;28;20061;-64
2022/05/14 21:11:55;;;;;;;4.03;1.80;;;;;;;20.00;37.14;100495.19;10372275;28;20261;-63
2022/05/14 21:16:57;;;;;;;4.07;1.85;;;;;;;19.91;38.90;100491.69;10373688;28;20053;-63
2022/05/14 21:21:58;;;;;;;5.18;2.00;;;;;;;19.68;39.64;100487.09;10373834;28;20084;-63
2022/05/14 21:27:00;;;;;;;5.60;2.33;;;;;;;19.58;40.60;100483.75;10372146;28;20860;-63
2022/05/14 21:32:01;;;;;;;4.32;2.05;;;;;;;19.43;41.50;100478.25;10375402;28;20583;-64
2022/05/14 21:42:23;;;;;;;5.72;2.40;;;;;;;19.41;43.70;100480.28;10373252;28;20507;-64
2022/05/14 21:47:25;;;;;;;4.20;2.67;;;;;;;19.47;42.49;100482.31;10377156;28;20439;-63
2022/05/14 21:52:28;;;;;;;7.72;2.97;;;;;;;19.38;44.33;100486.91;10388985;28;20077;-64
2022/05/14 21:57:30;;;;;;;5.07;2.95;;;;;;;19.34;44.61;100490.94;10376863;28;20417;-64
2022/05/14 22:02:31;;;;;;;7.43;2.80;;;;;;;19.21;45.33;100501.47;10377447;28;20049;-64
2022/05/14 22:07:33;;;;;;;6.55;3.13;;;;;;;19.31;45.36;100518.28;10381130;28;20065;-65
2022/05/14 22:12:34;;;;;;;6.68;3.42;;;;;;;19.15;44.39;100504.84;10381470;28;20136;-63
2022/05/14 22:17:37;;;;;;;6.68;3.72;;;;;;;19.08;46.42;100508.25;10379049;28;20647;-64
2022/05/14 22:22:39;;;;;;;6.07;2.80;;;;;;;18.80;46.13;100458.41;10377739;28;20072;-64
2022/05/14 22:27:40;;;;;;;4.82;2.60;;;;;;;19.18;45.27;100518.00;10381330;28;20140;-63
2022/05/14 22:32:42;;;;;;;6.78;3.28;;;;;;;19.12;45.63;100513.28;10386890;28;20077;-63
2022/05/14 22:37:44;;;;;;;5.38;3.13;;;;;;;19.03;46.39;100526.78;10375960;28;20053;-64
2022/05/14 22:43:04;;;;;;;6.30;3.53;;;;;;;18.81;47.10;100500.50;10376340;28;20243;-64
2022/05/14 22:48:08;;;;;;;7.13;3.60;;;;;;;18.94;47.16;100519.72;10375164;28;20056;-64
2022/05/14 22:53:13;;;;;;;5.93;3.03;;;;;;;18.89;47.07;100517.56;10373893;28;20051;-63
2022/05/14 22:58:17;;;;;;;4.00;3.03;;;;;;;18.83;46.17;100514.69;10374519;28;20872;-64
2022/05/14 23:03:20;;;;;;;5.97;3.10;;;;;;;18.68;47.46;100523.44;10374709;28;20049;-64
2022/05/14 23:08:23;;;;;;;4.15;3.20;;;;;;;18.36;48.97;100518.94;10374935;28;20251;-64
2022/05/14 23:13:25;;;;;;;10.32;3.45;;;;;;;18.32;47.06;100515.72;10377159;28;20640;-65
2022/05/14 23:18:26;;;;;;;6.55;3.65;;;;;;;18.38;48.22;100511.50;10375691;28;20049;-65
2022/05/14 23:23:28;;;;;;;4.70;3.20;;;;;;;18.48;48.11;100511.31;10374859;28;20137;-65
2022/05/14 23:28:29;;;;;;;7.72;3.50;;;;;;;18.33;47.83;100500.38;10375994;28;20136;-63
2022/05/14 23:33:30;;;;;;;7.45;3.67;;;;;;;18.34;47.30;100508.28;10373804;28;20065;-65
2022/05/14 23:38:32;;;;;;;8.75;3.88;;;;;;;18.26;47.21;100500.22;10375369;28;20069;-64
2022/05/14 23:43:34;;;;;;;7.57;3.38;;;;;;;18.25;47.69;100501.22;10373330;28;20087;-64
2022/05/14 23:48:35;;;;;;;7.05;3.60;;;;;;;18.05;47.33;100456.78;10374579;28;20156;-64
2022/05/14 23:53:42;;;;;;;5.30;2.92;;;;;;;18.22;47.29;100498.88;10374296;28;20207;-63
